LZZI METAR and TAF | Updated Today

LZZI METAR

Žilina Airport

Observation time: 28 min. ago

LZZI 062030Z VRB01KT 0500 R06/0650U FG SCT002 SCT030 11/11 Q1031

Need help? Read our tutorial on how to read METARs or read the parsed version below.

Žilina Airport (LZZI) METAR

  • Weather conditions on Thu, 06 Oct 2022 20:30:00 +0000 (28 min. ago):
  • Present conditions: Fog
  • Clouds: Scattered at 61 meters; scattered at 914 meters
  • Visibility: 500 meters
  • Wind: Variable at 1 knots
  • Temperature: 11 celsius
  • Dew point: 11 celsius
  • Pressure: 1031 millibars
  • Remarks: None


Useful to know...

LZZI TAF

Žilina Airport

TAF AMD LZZI 062004Z 0620/0703 VRB02KT 4000 BR FEW005 TEMPO 0622/0703 2500 BR BCFG BKN002
Observation time: 54 min. ago
Need help? Read our tutorial on how to read TAFs or read the parsed version below.

Parsed version of TAF for Žilina Airport (LZZI)

  • From 06 October at 20:00 UTC, to day 07 of the month at 03:00 UTC
  • Clouds: A few at 152 meters
  • Visibility: 4000 meters
  • Wind: Variable at 2
  • Other: Mist
  • Expected to arise temporarily, from 06 October at 22:00 UTC, to day 07 of the month at 03:00 UTC
  • Clouds: Broken sky at 61 meters
  • Visibility: 2500 meters
  • Other: Mist; patches of fog